sensor_id;sensor_type;location;lat;lon;timestamp;P1;durP1;ratioP1;P2;durP2;ratioP2
57824;SDS011;43912;44.188;21.094;2023-02-13T00:01:07;145.85;;;97.47;;
57824;SDS011;43912;44.188;21.094;2023-02-13T00:03:35;141.48;;;93.18;;
57824;SDS011;43912;44.188;21.094;2023-02-13T00:06:01;132.40;;;83.45;;
57824;SDS011;43912;44.188;21.094;2023-02-13T00:08:27;124.30;;;80.10;;
57824;SDS011;43912;44.188;21.094;2023-02-13T00:10:53;124.10;;;78.07;;
57824;SDS011;43912;44.188;21.094;2023-02-13T00:13:19;119.40;;;78.95;;
57824;SDS011;43912;44.188;21.094;2023-02-13T00:15:53;118.93;;;77.32;;
57824;SDS011;43912;44.188;21.094;2023-02-13T00:20:55;109.68;;;71.63;;
57824;SDS011;43912;44.188;21.094;2023-02-13T00:23:21;124.15;;;80.72;;
57824;SDS011;43912;44.188;21.094;2023-02-13T00:25:47;157.77;;;99.13;;
57824;SDS011;43912;44.188;21.094;2023-02-13T00:28:13;182.00;;;114.75;;
57824;SDS011;43912;44.188;21.094;2023-02-13T00:30:39;180.65;;;116.97;;
57824;SDS011;43912;44.188;21.094;2023-02-13T00:33:05;185.85;;;118.50;;
57824;SDS011;43912;44.188;21.094;2023-02-13T00:35:31;193.27;;;124.80;;
57824;SDS011;43912;44.188;21.094;2023-02-13T00:37:57;196.25;;;123.53;;
57824;SDS011;43912;44.188;21.094;2023-02-13T00:40:23;214.18;;;126.72;;
57824;SDS011;43912;44.188;21.094;2023-02-13T00:42:49;216.77;;;127.47;;
57824;SDS011;43912;44.188;21.094;2023-02-13T00:45:15;202.30;;;119.45;;
57824;SDS011;43912;44.188;21.094;2023-02-13T00:47:42;173.70;;;102.03;;
57824;SDS011;43912;44.188;21.094;2023-02-13T00:50:08;160.52;;;98.28;;
57824;SDS011;43912;44.188;21.094;2023-02-13T00:52:34;139.55;;;87.25;;
57824;SDS011;43912;44.188;21.094;2023-02-13T00:55:00;143.50;;;85.45;;
57824;SDS011;43912;44.188;21.094;2023-02-13T00:57:26;156.60;;;91.40;;
57824;SDS011;43912;44.188;21.094;2023-02-13T00:59:53;187.18;;;100.63;;
57824;SDS011;43912;44.188;21.094;2023-02-13T01:02:19;182.70;;;101.50;;
57824;SDS011;43912;44.188;21.094;2023-02-13T01:04:45;194.38;;;103.97;;
57824;SDS011;43912;44.188;21.094;2023-02-13T01:07:11;190.95;;;106.35;;
57824;SDS011;43912;44.188;21.094;2023-02-13T01:09:37;190.15;;;103.63;;
57824;SDS011;43912;44.188;21.094;2023-02-13T01:12:04;160.13;;;96.43;;
57824;SDS011;43912;44.188;21.094;2023-02-13T01:14:30;144.23;;;89.95;;
57824;SDS011;43912;44.188;21.094;2023-02-13T01:16:56;153.60;;;88.53;;
57824;SDS011;43912;44.188;21.094;2023-02-13T01:19:22;136.55;;;86.72;;
57824;SDS011;43912;44.188;21.094;2023-02-13T01:21:48;137.13;;;87.22;;
57824;SDS011;43912;44.188;21.094;2023-02-13T01:24:14;168.52;;;107.03;;
57824;SDS011;43912;44.188;21.094;2023-02-13T01:26:40;179.77;;;116.72;;
57824;SDS011;43912;44.188;21.094;2023-02-13T01:29:06;150.90;;;93.03;;
57824;SDS011;43912;44.188;21.094;2023-02-13T01:31:33;165.20;;;101.95;;
57824;SDS011;43912;44.188;21.094;2023-02-13T01:33:59;154.98;;;97.50;;
57824;SDS011;43912;44.188;21.094;2023-02-13T01:36:25;158.55;;;98.50;;
57824;SDS011;43912;44.188;21.094;2023-02-13T01:38:54;140.55;;;91.43;;
57824;SDS011;43912;44.188;21.094;2023-02-13T01:41:21;144.45;;;89.78;;
57824;SDS011;43912;44.188;21.094;2023-02-13T01:43:52;164.20;;;98.50;;
57824;SDS011;43912;44.188;21.094;2023-02-13T01:46:21;173.48;;;101.97;;
57824;SDS011;43912;44.188;21.094;2023-02-13T01:48:48;154.95;;;97.25;;
57824;SDS011;43912;44.188;21.094;2023-02-13T01:51:17;191.85;;;119.47;;
57824;SDS011;43912;44.188;21.094;2023-02-13T01:53:48;163.20;;;100.30;;
57824;SDS011;43912;44.188;21.094;2023-02-13T01:58:59;146.25;;;93.65;;
57824;SDS011;43912;44.188;21.094;2023-02-13T02:01:26;181.18;;;112.68;;
57824;SDS011;43912;44.188;21.094;2023-02-13T02:03:57;166.45;;;104.38;;
57824;SDS011;43912;44.188;21.094;2023-02-13T02:06:26;222.95;;;137.45;;
57824;SDS011;43912;44.188;21.094;2023-02-13T02:08:53;148.45;;;89.22;;
57824;SDS011;43912;44.188;21.094;2023-02-13T02:14:16;214.68;;;120.35;;
57824;SDS011;43912;44.188;21.094;2023-02-13T02:16:42;207.57;;;119.45;;
57824;SDS011;43912;44.188;21.094;2023-02-13T02:19:12;249.65;;;140.95;;
57824;SDS011;43912;44.188;21.094;2023-02-13T02:40:19;152.48;;;95.13;;
57824;SDS011;43912;44.188;21.094;2023-02-13T02:48:02;125.70;;;79.93;;
57824;SDS011;43912;44.188;21.094;2023-02-13T02:53:38;106.65;;;65.88;;
57824;SDS011;43912;44.188;21.094;2023-02-13T02:58:46;113.30;;;65.75;;
57824;SDS011;43912;44.188;21.094;2023-02-13T03:01:33;102.40;;;64.80;;
57824;SDS011;43912;44.188;21.094;2023-02-13T03:04:21;130.23;;;78.88;;
57824;SDS011;43912;44.188;21.094;2023-02-13T03:07:11;156.00;;;89.38;;
57824;SDS011;43912;44.188;21.094;2023-02-13T03:09:40;130.98;;;80.95;;
57824;SDS011;43912;44.188;21.094;2023-02-13T03:12:29;146.20;;;86.03;;
57824;SDS011;43912;44.188;21.094;2023-02-13T03:15:14;114.45;;;73.20;;
57824;SDS011;43912;44.188;21.094;2023-02-13T03:17:40;118.15;;;75.60;;
57824;SDS011;43912;44.188;21.094;2023-02-13T03:23:20;110.25;;;72.10;;
57824;SDS011;43912;44.188;21.094;2023-02-13T03:28:22;113.70;;;71.15;;
57824;SDS011;43912;44.188;21.094;2023-02-13T03:33:55;114.70;;;71.68;;
57824;SDS011;43912;44.188;21.094;2023-02-13T03:36:28;125.57;;;81.55;;
57824;SDS011;43912;44.188;21.094;2023-02-13T03:39:20;161.63;;;89.78;;
57824;SDS011;43912;44.188;21.094;2023-02-13T03:42:00;166.55;;;93.82;;
57824;SDS011;43912;44.188;21.094;2023-02-13T03:47:36;210.85;;;115.22;;
57824;SDS011;43912;44.188;21.094;2023-02-13T03:50:03;165.98;;;97.13;;
57824;SDS011;43912;44.188;21.094;2023-02-13T03:52:32;143.10;;;88.07;;
57824;SDS011;43912;44.188;21.094;2023-02-13T03:55:21;150.52;;;92.55;;
57824;SDS011;43912;44.188;21.094;2023-02-13T03:58:40;156.63;;;97.40;;
57824;SDS011;43912;44.188;21.094;2023-02-13T04:01:16;150.98;;;92.68;;
57824;SDS011;43912;44.188;21.094;2023-02-13T04:09:16;137.90;;;85.63;;
57824;SDS011;43912;44.188;21.094;2023-02-13T04:11:55;149.32;;;92.70;;
57824;SDS011;43912;44.188;21.094;2023-02-13T04:14:27;129.23;;;80.88;;
57824;SDS011;43912;44.188;21.094;2023-02-13T04:16:56;106.30;;;65.93;;
57824;SDS011;43912;44.188;21.094;2023-02-13T04:19:24;111.50;;;70.20;;
57824;SDS011;43912;44.188;21.094;2023-02-13T04:21:54;119.32;;;73.97;;
57824;SDS011;43912;44.188;21.094;2023-02-13T04:24:21;134.25;;;84.47;;
57824;SDS011;43912;44.188;21.094;2023-02-13T04:26:47;124.28;;;73.88;;
57824;SDS011;43912;44.188;21.094;2023-02-13T04:29:14;127.07;;;80.47;;
57824;SDS011;43912;44.188;21.094;2023-02-13T04:31:40;124.22;;;78.45;;
57824;SDS011;43912;44.188;21.094;2023-02-13T04:34:06;126.93;;;78.15;;
57824;SDS011;43912;44.188;21.094;2023-02-13T04:36:32;117.07;;;72.45;;
57824;SDS011;43912;44.188;21.094;2023-02-13T04:38:58;122.85;;;75.18;;
57824;SDS011;43912;44.188;21.094;2023-02-13T04:41:24;135.98;;;83.80;;
57824;SDS011;43912;44.188;21.094;2023-02-13T04:43:50;133.30;;;82.82;;
57824;SDS011;43912;44.188;21.094;2023-02-13T04:46:16;136.93;;;84.78;;
57824;SDS011;43912;44.188;21.094;2023-02-13T04:48:42;132.18;;;87.78;;
57824;SDS011;43912;44.188;21.094;2023-02-13T04:51:08;139.23;;;90.22;;
57824;SDS011;43912;44.188;21.094;2023-02-13T04:53:35;138.15;;;89.53;;
57824;SDS011;43912;44.188;21.094;2023-02-13T04:56:01;149.38;;;91.90;;
57824;SDS011;43912;44.188;21.094;2023-02-13T04:58:27;151.43;;;92.63;;
57824;SDS011;43912;44.188;21.094;2023-02-13T05:00:53;148.45;;;93.25;;
57824;SDS011;43912;44.188;21.094;2023-02-13T05:03:19;141.77;;;95.70;;
57824;SDS011;43912;44.188;21.094;2023-02-13T05:05:45;132.27;;;84.38;;
57824;SDS011;43912;44.188;21.094;2023-02-13T05:08:11;135.50;;;85.35;;
57824;SDS011;43912;44.188;21.094;2023-02-13T05:10:37;137.65;;;85.78;;
57824;SDS011;43912;44.188;21.094;2023-02-13T05:13:03;130.48;;;86.50;;
57824;SDS011;43912;44.188;21.094;2023-02-13T05:15:29;141.68;;;90.00;;
57824;SDS011;43912;44.188;21.094;2023-02-13T05:17:55;136.85;;;83.97;;
57824;SDS011;43912;44.188;21.094;2023-02-13T05:20:21;188.98;;;123.47;;
57824;SDS011;43912;44.188;21.094;2023-02-13T05:22:51;173.57;;;110.05;;
57824;SDS011;43912;44.188;21.094;2023-02-13T05:25:37;139.82;;;90.18;;
57824;SDS011;43912;44.188;21.094;2023-02-13T05:28:03;141.38;;;92.75;;
57824;SDS011;43912;44.188;21.094;2023-02-13T05:30:50;145.43;;;91.45;;
57824;SDS011;43912;44.188;21.094;2023-02-13T05:33:16;134.40;;;89.15;;
57824;SDS011;43912;44.188;21.094;2023-02-13T05:35:42;171.60;;;109.68;;
57824;SDS011;43912;44.188;21.094;2023-02-13T05:38:08;142.55;;;90.05;;
57824;SDS011;43912;44.188;21.094;2023-02-13T05:40:34;148.90;;;94.30;;
57824;SDS011;43912;44.188;21.094;2023-02-13T05:43:00;154.60;;;96.53;;
57824;SDS011;43912;44.188;21.094;2023-02-13T05:45:26;148.23;;;94.30;;
57824;SDS011;43912;44.188;21.094;2023-02-13T05:47:52;140.60;;;92.00;;
57824;SDS011;43912;44.188;21.094;2023-02-13T05:50:27;132.63;;;86.57;;
57824;SDS011;43912;44.188;21.094;2023-02-13T05:52:53;138.07;;;87.40;;
57824;SDS011;43912;44.188;21.094;2023-02-13T05:55:19;130.50;;;84.22;;
57824;SDS011;43912;44.188;21.094;2023-02-13T05:57:46;164.20;;;102.65;;
57824;SDS011;43912;44.188;21.094;2023-02-13T06:00:12;159.65;;;102.63;;
57824;SDS011;43912;44.188;21.094;2023-02-13T06:02:38;186.82;;;117.45;;
57824;SDS011;43912;44.188;21.094;2023-02-13T06:05:04;195.48;;;120.20;;
57824;SDS011;43912;44.188;21.094;2023-02-13T06:07:30;150.95;;;98.38;;
57824;SDS011;43912;44.188;21.094;2023-02-13T06:09:56;181.98;;;111.80;;
57824;SDS011;43912;44.188;21.094;2023-02-13T06:12:23;190.50;;;123.85;;
57824;SDS011;43912;44.188;21.094;2023-02-13T06:14:49;168.30;;;105.75;;
57824;SDS011;43912;44.188;21.094;2023-02-13T06:17:15;136.65;;;90.82;;
57824;SDS011;43912;44.188;21.094;2023-02-13T06:19:41;126.45;;;85.53;;
57824;SDS011;43912;44.188;21.094;2023-02-13T06:22:07;138.60;;;91.28;;
57824;SDS011;43912;44.188;21.094;2023-02-13T06:24:33;128.20;;;88.45;;
57824;SDS011;43912;44.188;21.094;2023-02-13T06:27:00;136.20;;;91.18;;
57824;SDS011;43912;44.188;21.094;2023-02-13T06:29:26;114.63;;;78.30;;
57824;SDS011;43912;44.188;21.094;2023-02-13T06:31:52;109.38;;;78.22;;
57824;SDS011;43912;44.188;21.094;2023-02-13T06:34:18;105.28;;;75.90;;
57824;SDS011;43912;44.188;21.094;2023-02-13T06:36:44;104.85;;;75.35;;
57824;SDS011;43912;44.188;21.094;2023-02-13T06:39:10;111.32;;;78.00;;
57824;SDS011;43912;44.188;21.094;2023-02-13T06:41:36;113.60;;;82.32;;
57824;SDS011;43912;44.188;21.094;2023-02-13T06:44:02;99.82;;;75.15;;
57824;SDS011;43912;44.188;21.094;2023-02-13T06:46:28;107.75;;;79.13;;
57824;SDS011;43912;44.188;21.094;2023-02-13T06:48:54;104.00;;;77.90;;
57824;SDS011;43912;44.188;21.094;2023-02-13T06:51:20;110.20;;;83.82;;
57824;SDS011;43912;44.188;21.094;2023-02-13T06:53:46;112.38;;;88.28;;
57824;SDS011;43912;44.188;21.094;2023-02-13T06:56:12;112.60;;;87.53;;
57824;SDS011;43912;44.188;21.094;2023-02-13T06:58:38;104.75;;;82.60;;
57824;SDS011;43912;44.188;21.094;2023-02-13T07:01:04;113.00;;;86.80;;
57824;SDS011;43912;44.188;21.094;2023-02-13T07:03:31;107.80;;;86.18;;
57824;SDS011;43912;44.188;21.094;2023-02-13T07:05:57;97.03;;;76.60;;
57824;SDS011;43912;44.188;21.094;2023-02-13T07:08:23;110.82;;;86.32;;
57824;SDS011;43912;44.188;21.094;2023-02-13T07:10:49;102.32;;;78.47;;
57824;SDS011;43912;44.188;21.094;2023-02-13T07:13:15;104.40;;;82.50;;
57824;SDS011;43912;44.188;21.094;2023-02-13T07:15:41;95.53;;;79.70;;
57824;SDS011;43912;44.188;21.094;2023-02-13T07:18:07;103.88;;;82.00;;
57824;SDS011;43912;44.188;21.094;2023-02-13T07:20:33;134.13;;;100.72;;
57824;SDS011;43912;44.188;21.094;2023-02-13T07:23:00;109.80;;;88.20;;
57824;SDS011;43912;44.188;21.094;2023-02-13T07:25:26;113.93;;;87.25;;
57824;SDS011;43912;44.188;21.094;2023-02-13T07:27:53;113.82;;;88.50;;
57824;SDS011;43912;44.188;21.094;2023-02-13T07:30:19;96.85;;;79.55;;
57824;SDS011;43912;44.188;21.094;2023-02-13T07:32:45;86.38;;;73.32;;
57824;SDS011;43912;44.188;21.094;2023-02-13T07:35:11;88.35;;;73.30;;
57824;SDS011;43912;44.188;21.094;2023-02-13T07:37:37;92.03;;;78.57;;
57824;SDS011;43912;44.188;21.094;2023-02-13T07:40:03;103.65;;;85.85;;
57824;SDS011;43912;44.188;21.094;2023-02-13T07:42:33;107.32;;;90.32;;
57824;SDS011;43912;44.188;21.094;2023-02-13T07:44:59;98.65;;;84.30;;
57824;SDS011;43912;44.188;21.094;2023-02-13T07:47:25;106.03;;;85.57;;
57824;SDS011;43912;44.188;21.094;2023-02-13T07:55:58;97.22;;;79.45;;
57824;SDS011;43912;44.188;21.094;2023-02-13T07:58:24;93.88;;;75.57;;
57824;SDS011;43912;44.188;21.094;2023-02-13T08:00:50;87.05;;;73.60;;
57824;SDS011;43912;44.188;21.094;2023-02-13T08:03:16;100.50;;;78.05;;
57824;SDS011;43912;44.188;21.094;2023-02-13T08:08:43;98.80;;;79.43;;
57824;SDS011;43912;44.188;21.094;2023-02-13T08:11:21;100.30;;;75.88;;
57824;SDS011;43912;44.188;21.094;2023-02-13T08:14:07;90.50;;;75.50;;
57824;SDS011;43912;44.188;21.094;2023-02-13T08:16:33;91.43;;;73.03;;
57824;SDS011;43912;44.188;21.094;2023-02-13T08:19:00;88.35;;;73.57;;
57824;SDS011;43912;44.188;21.094;2023-02-13T08:21:41;86.95;;;72.32;;
57824;SDS011;43912;44.188;21.094;2023-02-13T08:24:07;91.45;;;75.03;;
57824;SDS011;43912;44.188;21.094;2023-02-13T08:26:33;84.13;;;71.22;;
57824;SDS011;43912;44.188;21.094;2023-02-13T08:28:59;90.03;;;73.45;;
57824;SDS011;43912;44.188;21.094;2023-02-13T08:31:25;90.82;;;78.25;;
57824;SDS011;43912;44.188;21.094;2023-02-13T08:33:51;88.63;;;71.95;;
57824;SDS011;43912;44.188;21.094;2023-02-13T08:39:30;70.38;;;62.80;;
57824;SDS011;43912;44.188;21.094;2023-02-13T08:41:56;74.35;;;65.88;;
57824;SDS011;43912;44.188;21.094;2023-02-13T08:44:22;74.55;;;66.55;;
57824;SDS011;43912;44.188;21.094;2023-02-13T08:46:48;73.60;;;65.72;;
57824;SDS011;43912;44.188;21.094;2023-02-13T08:49:14;78.95;;;70.35;;
57824;SDS011;43912;44.188;21.094;2023-02-13T08:51:40;76.32;;;68.32;;
57824;SDS011;43912;44.188;21.094;2023-02-13T08:54:06;80.10;;;71.00;;
57824;SDS011;43912;44.188;21.094;2023-02-13T08:56:32;71.93;;;64.20;;
57824;SDS011;43912;44.188;21.094;2023-02-13T08:58:59;74.57;;;66.80;;
57824;SDS011;43912;44.188;21.094;2023-02-13T09:01:25;87.25;;;77.68;;
57824;SDS011;43912;44.188;21.094;2023-02-13T09:03:51;84.32;;;75.20;;
57824;SDS011;43912;44.188;21.094;2023-02-13T09:06:31;80.22;;;71.63;;
57824;SDS011;43912;44.188;21.094;2023-02-13T09:08:57;88.07;;;77.95;;
57824;SDS011;43912;44.188;21.094;2023-02-13T09:11:23;71.97;;;64.07;;
57824;SDS011;43912;44.188;21.094;2023-02-13T09:13:52;94.25;;;84.05;;
57824;SDS011;43912;44.188;21.094;2023-02-13T09:16:19;76.47;;;68.60;;
57824;SDS011;43912;44.188;21.094;2023-02-13T09:18:45;83.53;;;69.13;;
57824;SDS011;43912;44.188;21.094;2023-02-13T09:21:27;71.32;;;62.40;;
57824;SDS011;43912;44.188;21.094;2023-02-13T09:23:55;79.57;;;67.93;;
57824;SDS011;43912;44.188;21.094;2023-02-13T09:26:21;70.78;;;63.08;;
57824;SDS011;43912;44.188;21.094;2023-02-13T09:28:47;68.75;;;59.80;;
57824;SDS011;43912;44.188;21.094;2023-02-13T09:31:14;64.40;;;57.65;;
57824;SDS011;43912;44.188;21.094;2023-02-13T09:33:40;59.80;;;53.60;;
57824;SDS011;43912;44.188;21.094;2023-02-13T09:38:52;82.43;;;69.30;;
57824;SDS011;43912;44.188;21.094;2023-02-13T09:41:20;75.28;;;66.93;;
57824;SDS011;43912;44.188;21.094;2023-02-13T09:46:39;89.60;;;70.15;;
57824;SDS011;43912;44.188;21.094;2023-02-13T09:49:12;78.70;;;65.63;;
57824;SDS011;43912;44.188;21.094;2023-02-13T09:51:41;88.72;;;72.30;;
57824;SDS011;43912;44.188;21.094;2023-02-13T09:54:11;70.47;;;62.83;;
57824;SDS011;43912;44.188;21.094;2023-02-13T09:56:48;71.85;;;64.25;;
57824;SDS011;43912;44.188;21.094;2023-02-13T10:01:53;67.85;;;60.70;;
57824;SDS011;43912;44.188;21.094;2023-02-13T10:06:59;67.50;;;60.40;;
57824;SDS011;43912;44.188;21.094;2023-02-13T10:09:37;65.47;;;58.95;;
57824;SDS011;43912;44.188;21.094;2023-02-13T10:14:31;73.07;;;60.80;;
57824;SDS011;43912;44.188;21.094;2023-02-13T10:17:09;66.18;;;59.05;;
57824;SDS011;43912;44.188;21.094;2023-02-13T10:19:46;68.82;;;61.35;;
57824;SDS011;43912;44.188;21.094;2023-02-13T10:22:17;67.40;;;56.83;;
57824;SDS011;43912;44.188;21.094;2023-02-13T10:24:46;60.67;;;54.15;;
57824;SDS011;43912;44.188;21.094;2023-02-13T10:27:23;70.38;;;63.28;;
57824;SDS011;43912;44.188;21.094;2023-02-13T10:35:18;63.13;;;56.28;;
57824;SDS011;43912;44.188;21.094;2023-02-13T10:37:45;76.50;;;69.15;;
57824;SDS011;43912;44.188;21.094;2023-02-13T10:40:15;63.85;;;57.63;;
57824;SDS011;43912;44.188;21.094;2023-02-13T10:42:46;61.20;;;55.15;;
57824;SDS011;43912;44.188;21.094;2023-02-13T10:45:21;57.63;;;51.67;;
57824;SDS011;43912;44.188;21.094;2023-02-13T10:47:54;59.40;;;53.17;;
57824;SDS011;43912;44.188;21.094;2023-02-13T10:50:46;56.03;;;50.33;;
57824;SDS011;43912;44.188;21.094;2023-02-13T10:53:14;52.80;;;47.40;;
57824;SDS011;43912;44.188;21.094;2023-02-13T10:56:01;52.38;;;47.13;;
57824;SDS011;43912;44.188;21.094;2023-02-13T10:58:36;59.92;;;53.90;;
57824;SDS011;43912;44.188;21.094;2023-02-13T11:01:06;57.28;;;51.47;;
57824;SDS011;43912;44.188;21.094;2023-02-13T11:03:32;54.30;;;48.80;;
57824;SDS011;43912;44.188;21.094;2023-02-13T11:05:59;54.88;;;49.42;;
57824;SDS011;43912;44.188;21.094;2023-02-13T11:08:32;53.60;;;48.05;;
57824;SDS011;43912;44.188;21.094;2023-02-13T11:10:58;52.88;;;47.35;;
57824;SDS011;43912;44.188;21.094;2023-02-13T11:13:25;53.53;;;48.15;;
57824;SDS011;43912;44.188;21.094;2023-02-13T11:18:28;52.40;;;47.10;;
57824;SDS011;43912;44.188;21.094;2023-02-13T11:21:08;54.55;;;45.75;;
57824;SDS011;43912;44.188;21.094;2023-02-13T11:28:49;43.65;;;39.08;;
57824;SDS011;43912;44.188;21.094;2023-02-13T11:31:24;50.50;;;45.60;;
57824;SDS011;43912;44.188;21.094;2023-02-13T11:33:51;46.30;;;41.75;;
57824;SDS011;43912;44.188;21.094;2023-02-13T11:38:59;52.65;;;43.55;;
57824;SDS011;43912;44.188;21.094;2023-02-13T11:41:25;40.55;;;36.22;;
57824;SDS011;43912;44.188;21.094;2023-02-13T11:46:25;34.78;;;31.05;;
57824;SDS011;43912;44.188;21.094;2023-02-13T11:49:02;42.20;;;37.72;;
57824;SDS011;43912;44.188;21.094;2023-02-13T11:51:36;44.17;;;39.65;;
57824;SDS011;43912;44.188;21.094;2023-02-13T11:54:02;37.78;;;33.88;;
57824;SDS011;43912;44.188;21.094;2023-02-13T11:56:35;36.85;;;33.13;;
57824;SDS011;43912;44.188;21.094;2023-02-13T11:59:11;29.75;;;26.33;;
57824;SDS011;43912;44.188;21.094;2023-02-13T12:01:38;35.92;;;32.20;;
57824;SDS011;43912;44.188;21.094;2023-02-13T12:04:14;30.05;;;22.30;;
57824;SDS011;43912;44.188;21.094;2023-02-13T12:06:48;28.10;;;25.13;;
57824;SDS011;43912;44.188;21.094;2023-02-13T12:09:21;21.67;;;19.27;;
57824;SDS011;43912;44.188;21.094;2023-02-13T12:11:48;26.20;;;23.60;;
57824;SDS011;43912;44.188;21.094;2023-02-13T12:17:06;21.33;;;19.02;;
57824;SDS011;43912;44.188;21.094;2023-02-13T12:27:29;18.95;;;15.85;;
57824;SDS011;43912;44.188;21.094;2023-02-13T12:51:37;28.25;;;24.88;;
57824;SDS011;43912;44.188;21.094;2023-02-13T12:56:37;51.08;;;29.63;;
57824;SDS011;43912;44.188;21.094;2023-02-13T12:59:08;25.63;;;21.45;;
57824;SDS011;43912;44.188;21.094;2023-02-13T13:19:45;32.92;;;28.80;;
57824;SDS011;43912;44.188;21.094;2023-02-13T13:22:18;47.30;;;29.30;;
57824;SDS011;43912;44.188;21.094;2023-02-13T13:27:33;51.25;;;38.92;;
57824;SDS011;43912;44.188;21.094;2023-02-13T13:29:58;36.38;;;30.33;;
57824;SDS011;43912;44.188;21.094;2023-02-13T13:32:26;28.58;;;24.13;;
57824;SDS011;43912;44.188;21.094;2023-02-13T13:34:53;31.10;;;25.10;;
57824;SDS011;43912;44.188;21.094;2023-02-13T13:37:27;33.58;;;29.98;;
57824;SDS011;43912;44.188;21.094;2023-02-13T13:40:00;37.72;;;28.98;;
57824;SDS011;43912;44.188;21.094;2023-02-13T13:42:37;28.15;;;21.73;;
57824;SDS011;43912;44.188;21.094;2023-02-13T13:47:36;30.05;;;26.90;;
57824;SDS011;43912;44.188;21.094;2023-02-13T13:50:11;31.83;;;28.20;;
57824;SDS011;43912;44.188;21.094;2023-02-13T13:52:42;30.55;;;27.25;;
57824;SDS011;43912;44.188;21.094;2023-02-13T13:58:23;31.80;;;26.27;;
57824;SDS011;43912;44.188;21.094;2023-02-13T14:03:34;33.85;;;30.23;;
57824;SDS011;43912;44.188;21.094;2023-02-13T14:06:02;28.20;;;24.52;;
57824;SDS011;43912;44.188;21.094;2023-02-13T14:13:51;32.72;;;26.45;;
57824;SDS011;43912;44.188;21.094;2023-02-13T14:16:36;36.65;;;31.15;;
57824;SDS011;43912;44.188;21.094;2023-02-13T14:19:03;34.15;;;28.98;;
57824;SDS011;43912;44.188;21.094;2023-02-13T14:21:29;30.38;;;25.65;;
57824;SDS011;43912;44.188;21.094;2023-02-13T14:23:55;38.20;;;30.92;;
57824;SDS011;43912;44.188;21.094;2023-02-13T14:26:31;39.83;;;32.03;;
57824;SDS011;43912;44.188;21.094;2023-02-13T14:31:51;56.88;;;31.98;;
57824;SDS011;43912;44.188;21.094;2023-02-13T14:34:19;37.60;;;30.65;;
57824;SDS011;43912;44.188;21.094;2023-02-13T14:37:14;37.45;;;31.02;;
57824;SDS011;43912;44.188;21.094;2023-02-13T14:40:08;42.53;;;34.15;;
57824;SDS011;43912;44.188;21.094;2023-02-13T14:42:30;38.47;;;30.52;;
57824;SDS011;43912;44.188;21.094;2023-02-13T14:44:58;48.78;;;37.60;;
57824;SDS011;43912;44.188;21.094;2023-02-13T14:47:39;54.35;;;43.47;;
57824;SDS011;43912;44.188;21.094;2023-02-13T14:50:07;53.70;;;41.78;;
57824;SDS011;43912;44.188;21.094;2023-02-13T14:52:41;66.20;;;44.70;;
57824;SDS011;43912;44.188;21.094;2023-02-13T14:57:53;79.78;;;58.05;;
57824;SDS011;43912;44.188;21.094;2023-02-13T15:00:24;74.47;;;54.38;;
57824;SDS011;43912;44.188;21.094;2023-02-13T15:02:52;62.83;;;46.90;;
57824;SDS011;43912;44.188;21.094;2023-02-13T15:05:19;64.45;;;49.42;;
57824;SDS011;43912;44.188;21.094;2023-02-13T15:07:48;65.82;;;48.83;;
57824;SDS011;43912;44.188;21.094;2023-02-13T15:12:40;91.47;;;60.95;;
57824;SDS011;43912;44.188;21.094;2023-02-13T15:15:26;80.82;;;58.67;;
57824;SDS011;43912;44.188;21.094;2023-02-13T15:17:57;82.95;;;57.30;;
57824;SDS011;43912;44.188;21.094;2023-02-13T15:20:25;84.85;;;60.38;;
57824;SDS011;43912;44.188;21.094;2023-02-13T15:22:52;140.18;;;80.40;;
57824;SDS011;43912;44.188;21.094;2023-02-13T15:25:37;103.47;;;78.63;;
57824;SDS011;43912;44.188;21.094;2023-02-13T15:28:04;109.57;;;82.45;;
57824;SDS011;43912;44.188;21.094;2023-02-13T15:30:32;108.72;;;79.22;;
57824;SDS011;43912;44.188;21.094;2023-02-13T15:33:01;127.40;;;89.90;;
57824;SDS011;43912;44.188;21.094;2023-02-13T15:35:28;110.90;;;82.13;;
57824;SDS011;43912;44.188;21.094;2023-02-13T15:37:55;110.82;;;77.05;;
57824;SDS011;43912;44.188;21.094;2023-02-13T15:42:54;94.47;;;71.95;;
57824;SDS011;43912;44.188;21.094;2023-02-13T15:45:21;77.07;;;59.72;;
57824;SDS011;43912;44.188;21.094;2023-02-13T15:47:47;73.88;;;54.33;;
57824;SDS011;43912;44.188;21.094;2023-02-13T15:50:15;82.35;;;54.97;;
57824;SDS011;43912;44.188;21.094;2023-02-13T15:52:42;85.97;;;57.97;;
57824;SDS011;43912;44.188;21.094;2023-02-13T15:55:21;70.80;;;56.28;;
57824;SDS011;43912;44.188;21.094;2023-02-13T15:57:48;89.57;;;59.22;;
57824;SDS011;43912;44.188;21.094;2023-02-13T16:00:25;82.80;;;62.30;;
57824;SDS011;43912;44.188;21.094;2023-02-13T16:02:52;85.40;;;61.65;;
57824;SDS011;43912;44.188;21.094;2023-02-13T16:05:19;95.75;;;68.28;;
57824;SDS011;43912;44.188;21.094;2023-02-13T16:07:46;101.35;;;75.53;;
57824;SDS011;43912;44.188;21.094;2023-02-13T16:10:17;86.03;;;61.03;;
57824;SDS011;43912;44.188;21.094;2023-02-13T16:12:48;75.82;;;52.40;;
57824;SDS011;43912;44.188;21.094;2023-02-13T16:15:15;76.05;;;55.92;;
57824;SDS011;43912;44.188;21.094;2023-02-13T16:17:43;76.03;;;58.35;;
57824;SDS011;43912;44.188;21.094;2023-02-13T16:22:37;84.00;;;61.38;;
57824;SDS011;43912;44.188;21.094;2023-02-13T16:25:16;102.20;;;68.70;;
57824;SDS011;43912;44.188;21.094;2023-02-13T16:27:59;113.55;;;70.85;;
57824;SDS011;43912;44.188;21.094;2023-02-13T16:30:33;107.65;;;70.28;;
57824;SDS011;43912;44.188;21.094;2023-02-13T16:37:53;84.95;;;61.95;;
57824;SDS011;43912;44.188;21.094;2023-02-13T16:42:52;80.30;;;57.00;;
57824;SDS011;43912;44.188;21.094;2023-02-13T16:45:22;70.25;;;51.80;;
57824;SDS011;43912;44.188;21.094;2023-02-13T16:47:57;71.30;;;47.15;;
57824;SDS011;43912;44.188;21.094;2023-02-13T16:50:26;55.45;;;43.08;;
57824;SDS011;43912;44.188;21.094;2023-02-13T16:52:57;53.72;;;41.15;;
57824;SDS011;43912;44.188;21.094;2023-02-13T16:55:24;60.90;;;44.63;;
57824;SDS011;43912;44.188;21.094;2023-02-13T16:57:50;65.80;;;48.50;;
57824;SDS011;43912;44.188;21.094;2023-02-13T17:00:17;73.35;;;54.58;;
57824;SDS011;43912;44.188;21.094;2023-02-13T17:02:46;70.00;;;53.92;;
57824;SDS011;43912;44.188;21.094;2023-02-13T17:05:23;61.33;;;47.63;;
57824;SDS011;43912;44.188;21.094;2023-02-13T17:07:50;60.28;;;43.35;;
57824;SDS011;43912;44.188;21.094;2023-02-13T17:13:10;52.40;;;39.28;;
57824;SDS011;43912;44.188;21.094;2023-02-13T17:15:37;53.72;;;38.65;;
57824;SDS011;43912;44.188;21.094;2023-02-13T17:18:05;49.92;;;36.72;;
57824;SDS011;43912;44.188;21.094;2023-02-13T17:20:32;44.25;;;35.97;;
57824;SDS011;43912;44.188;21.094;2023-02-13T17:23:00;45.17;;;33.65;;
57824;SDS011;43912;44.188;21.094;2023-02-13T17:25:30;41.40;;;31.88;;